Time;durP1;ratioP1;P1;durP2;ratioP2;P2;SDS_P1;SDS_P2;PMS_P1;PMS_P2;Temp;Humidity;BMP_temperature;BMP_pressure;BME280_temperature;BME280_humidity;BME280_pressure;Samples;Min_cycle;Max_cycle;Signal;HPM_P1;HPM_P2
2021/09/01 00:00:56;;;;;;;28.20;11.90;;;15.80;73.50;;;;;;5038622;28;20973;-77
2021/09/01 00:03:21;;;;;;;24.67;11.50;;;15.90;72.30;;;;;;5031979;28;20871;-76
2021/09/01 00:05:48;;;;;;;28.13;11.95;;;15.80;73.20;;;;;;5014238;28;20911;-75
2021/09/01 00:08:13;;;;;;;31.10;12.20;;;15.90;72.30;;;;;;5032273;28;20430;-75
2021/09/01 00:10:39;;;;;;;26.87;11.20;;;15.90;71.20;;;;;;5058683;28;20392;-76
2021/09/01 00:13:05;;;;;;;24.93;11.97;;;15.90;71.90;;;;;;5032384;28;20395;-78
2021/09/01 00:15:30;;;;;;;25.00;12.40;;;15.90;71.40;;;;;;5036930;28;20395;-78
2021/09/01 00:17:56;;;;;;;28.97;11.87;;;15.90;71.60;;;;;;5037365;28;20387;-76
2021/09/01 00:20:25;;;;;;;30.47;11.83;;;15.90;71.10;;;;;;5040465;28;20424;-77
2021/09/01 00:22:51;;;;;;;27.52;13.00;;;16.00;71.30;;;;;;5040869;28;20383;-76
2021/09/01 00:25:16;;;;;;;23.97;13.10;;;16.00;71.70;;;;;;5050209;28;20386;-77
2021/09/01 00:27:42;;;;;;;24.57;12.60;;;15.90;72.00;;;;;;5074372;28;20440;-77
2021/09/01 00:30:08;;;;;;;24.60;13.17;;;15.90;73.90;;;;;;5076833;28;20384;-77
2021/09/01 00:32:34;;;;;;;27.25;12.90;;;15.90;72.20;;;;;;5079062;28;20387;-77
2021/09/01 00:34:59;;;;;;;29.90;13.40;;;15.90;71.90;;;;;;5054083;28;20390;-77
2021/09/01 00:37:25;;;;;;;26.67;12.90;;;16.00;71.50;;;;;;5054909;28;20390;-77
2021/09/01 00:39:50;;;;;;;29.10;13.77;;;16.00;72.00;;;;;;5049485;28;20466;-77
2021/09/01 00:42:16;;;;;;;29.23;14.13;;;16.00;71.50;;;;;;5033828;28;20888;-76
2021/09/01 00:44:42;;;;;;;28.48;13.45;;;16.00;71.80;;;;;;5035910;28;20402;-77
2021/09/01 00:47:08;;;;;;;28.15;14.95;;;16.00;72.80;;;;;;5039052;28;20715;-77
2021/09/01 00:49:33;;;;;;;28.38;14.70;;;15.90;75.60;;;;;;5042008;28;20486;-76
2021/09/01 00:52:00;;;;;;;32.53;15.75;;;15.90;75.70;;;;;;5051591;28;20387;-76
2021/09/01 00:54:28;;;;;;;39.63;15.80;;;15.80;76.10;;;;;;5024814;28;20395;-78
2021/09/01 00:57:05;;;;;;;30.23;15.10;;;15.90;75.90;;;;;;5036453;28;20386;-77
2021/09/01 00:59:33;;;;;;;33.55;15.25;;;16.10;70.80;;;;;;5035261;28;20466;-75
2021/09/01 01:02:00;;;;;;;29.88;15.15;;;16.10;69.80;;;;;;5038555;28;20379;-77
2021/09/01 01:04:27;;;;;;;34.08;14.70;;;16.10;70.20;;;;;;5018555;28;20391;-77
2021/09/01 01:07:01;;;;;;;30.52;15.48;;;16.20;68.90;;;;;;5068062;23;20437;-78
2021/09/01 01:09:28;;;;;;;38.80;15.05;;;16.10;69.00;;;;;;5055962;28;20413;-77
2021/09/01 01:12:05;;;;;;;30.08;14.43;;;16.20;68.20;;;;;;5055158;28;20377;-77
2021/09/01 01:14:34;;;;;;;28.63;14.40;;;16.10;67.60;;;;;;5054842;28;20869;-77
2021/09/01 01:17:00;;;;;;;32.03;15.05;;;16.10;68.40;;;;;;5055049;28;20381;-77
2021/09/01 01:19:26;;;;;;;28.40;14.57;;;16.10;69.60;;;;;;5055275;28;20382;-77
2021/09/01 01:21:52;;;;;;;30.50;14.97;;;16.00;70.80;;;;;;5055792;28;20377;-77
2021/09/01 01:24:17;;;;;;;32.63;14.47;;;15.90;74.10;;;;;;5052694;28;20443;-76
2021/09/01 01:26:43;;;;;;;26.17;12.47;;;16.10;68.50;;;;;;5054352;28;20466;-76
2021/09/01 01:29:10;;;;;;;27.65;11.10;;;16.20;63.10;;;;;;5052292;28;20397;-77
2021/09/01 01:31:39;;;;;;;30.05;12.27;;;16.10;61.80;;;;;;5051369;28;20401;-76
2021/09/01 01:34:13;;;;;;;30.08;12.07;;;16.10;62.30;;;;;;5072207;28;20391;-77
2021/09/01 01:36:38;;;;;;;33.97;11.20;;;16.10;62.70;;;;;;5034743;28;20457;-77
2021/09/01 01:39:04;;;;;;;26.17;11.03;;;16.20;60.90;;;;;;5053364;28;20411;-76
2021/09/01 01:41:29;;;;;;;29.47;11.27;;;16.20;60.90;;;;;;5067437;28;20486;-77
2021/09/01 01:43:55;;;;;;;21.92;9.77;;;16.20;60.20;;;;;;5035231;28;20840;-77
2021/09/01 01:46:20;;;;;;;27.23;11.05;;;16.20;58.50;;;;;;5034730;28;20814;-77
2021/09/01 01:48:46;;;;;;;23.70;10.10;;;16.10;59.80;;;;;;5032469;28;20434;-77
2021/09/01 01:51:11;;;;;;;26.13;10.90;;;16.10;62.40;;;;;;5046606;28;20404;-77
2021/09/01 01:53:37;;;;;;;19.97;10.50;;;16.10;59.60;;;;;;5059808;28;20447;-77
2021/09/01 01:56:03;;;;;;;26.17;10.40;;;16.10;60.80;;;;;;5062053;28;20461;-77
2021/09/01 01:58:28;;;;;;;22.52;9.73;;;16.20;58.10;;;;;;5060578;28;20394;-77
2021/09/01 02:00:54;;;;;;;25.95;10.55;;;16.20;57.60;;;;;;5059734;28;20788;-78
2021/09/01 02:03:20;;;;;;;23.88;10.15;;;16.20;57.50;;;;;;5055882;28;20381;-78
2021/09/01 02:05:45;;;;;;;23.67;10.30;;;16.20;59.40;;;;;;5054813;28;20408;-77
2021/09/01 02:08:11;;;;;;;24.43;10.20;;;16.20;57.30;;;;;;5052070;28;20480;-76
2021/09/01 02:10:36;;;;;;;25.17;10.27;;;16.30;56.10;;;;;;5051189;28;20385;-75
2021/09/01 02:13:02;;;;;;;21.98;10.43;;;16.30;58.10;;;;;;5051285;28;20758;-76
2021/09/01 02:15:28;;;;;;;23.75;9.80;;;16.20;57.70;;;;;;5053332;28;20528;-78
2021/09/01 02:17:53;;;;;;;20.00;9.55;;;16.20;55.50;;;;;;5057576;28;20888;-78
2021/09/01 02:20:19;;;;;;;23.45;8.95;;;16.20;54.70;;;;;;5054184;28;20394;-78
2021/09/01 02:22:45;;;;;;;17.77;8.65;;;16.30;54.30;;;;;;5051616;28;20436;-78
2021/09/01 02:25:12;;;;;;;26.20;8.90;;;16.20;55.20;;;;;;5054996;28;20614;-79
2021/09/01 02:27:38;;;;;;;21.73;9.00;;;16.10;53.60;;;;;;5054952;28;20935;-79
2021/09/01 02:30:05;;;;;;;22.23;8.88;;;16.10;55.00;;;;;;5055024;28;20409;-78
2021/09/01 02:32:30;;;;;;;25.00;9.27;;;16.20;55.20;;;;;;5054800;28;20381;-77
2021/09/01 02:34:56;;;;;;;24.63;9.43;;;16.20;55.10;;;;;;5053295;28;20392;-77
2021/09/01 02:37:22;;;;;;;22.33;9.10;;;16.20;54.50;;;;;;5052542;28;20862;-75
2021/09/01 02:39:48;;;;;;;22.75;9.40;;;16.20;54.20;;;;;;5051080;28;20402;-76
2021/09/01 02:42:13;;;;;;;21.63;8.45;;;16.20;53.90;;;;;;5046467;28;20709;-78
2021/09/01 02:44:39;;;;;;;23.67;8.57;;;16.20;54.00;;;;;;5038160;28;20403;-77
2021/09/01 02:47:05;;;;;;;20.25;8.40;;;16.30;53.80;;;;;;5042987;28;20383;-77
2021/09/01 02:49:30;;;;;;;18.02;8.30;;;16.20;54.50;;;;;;5064469;28;20409;-78
2021/09/01 02:51:56;;;;;;;21.63;8.93;;;16.10;54.50;;;;;;5056952;28;20397;-77
2021/09/01 02:54:21;;;;;;;20.50;8.23;;;16.10;55.80;;;;;;5054552;28;20431;-78
2021/09/01 02:56:47;;;;;;;16.00;8.60;;;16.20;53.10;;;;;;5053902;28;20378;-78
2021/09/01 02:59:13;;;;;;;18.70;8.43;;;16.20;52.40;;;;;;5051406;28;20419;-78
2021/09/01 03:01:39;;;;;;;17.75;9.00;;;16.20;54.00;;;;;;5056995;28;20761;-76
2021/09/01 03:04:04;;;;;;;16.77;7.70;;;16.20;52.10;;;;;;5057144;28;20463;-79
2021/09/01 03:06:30;;;;;;;19.65;7.45;;;16.40;49.80;;;;;;5058834;28;20405;-77
2021/09/01 03:08:55;;;;;;;24.23;8.27;;;16.40;48.50;;;;;;5063195;28;20417;-78
2021/09/01 03:11:21;;;;;;;17.43;7.50;;;16.20;49.80;;;;;;5042483;28;20415;-80
2021/09/01 03:13:47;;;;;;;18.20;7.90;;;16.20;50.10;;;;;;5042076;28;20398;-80
2021/09/01 03:16:12;;;;;;;22.70;7.90;;;16.20;51.00;;;;;;5057576;28;20480;-78
2021/09/01 03:18:38;;;;;;;15.80;7.97;;;16.20;51.50;;;;;;5056392;28;20397;-80
2021/09/01 03:21:03;;;;;;;24.77;7.95;;;16.20;50.80;;;;;;5053993;28;20393;-79
2021/09/01 03:23:29;;;;;;;22.38;10.57;;;16.20;51.20;;;;;;5055261;28;20388;-80
2021/09/01 03:25:55;;;;;;;24.27;12.00;;;16.20;49.70;;;;;;5054462;28;20389;-79
2021/09/01 03:28:20;;;;;;;24.53;13.03;;;16.20;49.50;;;;;;5058167;28;20408;-79
2021/09/01 03:30:46;;;;;;;30.33;13.00;;;16.20;48.50;;;;;;5064773;28;20408;-79
2021/09/01 03:33:11;;;;;;;27.67;12.27;;;16.00;50.00;;;;;;5062485;28;20391;-77
2021/09/01 03:35:37;;;;;;;32.15;13.38;;;16.10;49.80;;;;;;5038908;28;20395;-79
2021/09/01 03:38:03;;;;;;;28.88;12.70;;;16.20;49.80;;;;;;5033859;28;20442;-80
2021/09/01 03:40:28;;;;;;;28.33;14.73;;;16.20;49.50;;;;;;5061809;28;20418;-78
2021/09/01 03:42:54;;;;;;;34.80;14.40;;;16.20;49.00;;;;;;5071515;28;20416;-77
2021/09/01 03:45:19;;;;;;;28.17;14.00;;;16.20;49.50;;;;;;5059041;28;20389;-80
2021/09/01 03:47:45;;;;;;;32.10;15.60;;;16.10;50.20;;;;;;5054432;28;20893;-80
2021/09/01 03:50:12;;;;;;;33.87;15.60;;;16.20;49.60;;;;;;5055136;28;20768;-81
2021/09/01 03:52:38;;;;;;;34.20;16.40;;;16.30;48.80;;;;;;5054109;28;20385;-80
2021/09/01 03:55:08;;;;;;;33.83;16.42;;;16.30;47.20;;;;;;5069536;28;20389;-77
2021/09/01 03:57:37;;;;;;;37.72;18.38;;;16.20;47.00;;;;;;5077020;28;20408;-78
2021/09/01 04:00:07;;;;;;;35.70;18.38;;;16.30;48.10;;;;;;5075767;28;20949;-77
2021/09/01 04:02:33;;;;;;;35.67;18.42;;;16.20;48.00;;;;;;5070132;28;20512;-77
2021/09/01 04:04:59;;;;;;;44.03;19.67;;;16.20;49.10;;;;;;5061862;28;20828;-79
2021/09/01 04:07:24;;;;;;;37.13;18.50;;;16.10;47.60;;;;;;5062561;28;20439;-77
2021/09/01 04:09:50;;;;;;;36.77;18.67;;;16.10;47.70;;;;;;5059847;28;20411;-77
2021/09/01 04:12:16;;;;;;;34.87;18.70;;;16.10;47.80;;;;;;5040221;28;20391;-79
2021/09/01 04:14:41;;;;;;;41.45;20.98;;;16.10;47.20;;;;;;5054478;28;20388;-80
2021/09/01 04:17:07;;;;;;;38.53;19.95;;;16.10;48.10;;;;;;5051773;28;20412;-79
2021/09/01 04:19:36;;;;;;;40.25;20.77;;;16.10;47.70;;;;;;5058605;28;20385;-80
2021/09/01 04:22:06;;;;;;;38.72;21.00;;;16.10;48.70;;;;;;5058481;28;20444;-80
2021/09/01 04:24:33;;;;;;;38.65;20.08;;;16.10;48.30;;;;;;5056616;28;20936;-79
2021/09/01 04:26:59;;;;;;;36.67;21.40;;;16.10;47.90;;;;;;5054630;28;20413;-79
2021/09/01 04:29:25;;;;;;;36.30;21.27;;;16.20;48.30;;;;;;5044829;28;20401;-79
2021/09/01 04:31:51;;;;;;;38.60;20.60;;;16.00;49.70;;;;;;5056034;28;20484;-78
2021/09/01 04:34:16;;;;;;;40.88;19.95;;;16.10;48.40;;;;;;5038903;28;20846;-79
2021/09/01 04:36:42;;;;;;;36.00;17.23;;;16.00;49.60;;;;;;5055470;28;20483;-81
2021/09/01 04:39:08;;;;;;;33.67;17.15;;;16.10;49.10;;;;;;5089736;28;20397;-79
2021/09/01 04:41:34;;;;;;;28.30;15.25;;;16.00;51.30;;;;;;5038848;28;20395;-81
2021/09/01 04:44:01;;;;;;;29.63;14.07;;;16.10;48.70;;;;;;5053488;28;20390;-80
2021/09/01 04:46:27;;;;;;;28.13;12.80;;;16.10;48.20;;;;;;5046741;28;20513;-81
2021/09/01 04:48:53;;;;;;;27.90;13.57;;;16.20;47.60;;;;;;5056830;28;20502;-80
2021/09/01 04:51:46;;;;;;;25.63;14.13;;;16.10;49.20;;;;;;5058219;28;20378;-81
2021/09/01 04:54:45;;;;;;;24.70;13.85;;;15.90;50.20;;;;;;5057362;28;20388;-78
2021/09/01 04:57:15;;;;;;;27.05;12.30;;;15.80;51.00;;;;;;5059501;28;20398;-81
2021/09/01 04:59:42;;;;;;;25.85;11.90;;;16.10;47.50;;;;;;5057202;28;20870;-79
2021/09/01 05:02:14;;;;;;;21.02;9.80;;;16.20;46.80;;;;;;5058833;28;20389;-79
2021/09/01 05:04:41;;;;;;;20.63;9.02;;;16.40;45.70;;;;;;5072631;28;20436;-80
2021/09/01 05:07:10;;;;;;;17.67;8.40;;;16.50;43.90;;;;;;5093308;28;20409;-79
2021/09/01 05:09:44;;;;;;;17.23;7.90;;;16.50;44.00;;;;;;5071869;28;20405;-78
2021/09/01 05:12:11;;;;;;;22.50;8.90;;;16.50;42.60;;;;;;5068618;28;20921;-78
2021/09/01 05:14:36;;;;;;;17.52;7.75;;;16.40;43.20;;;;;;5079005;28;20381;-77
2021/09/01 05:17:02;;;;;;;15.90;7.13;;;16.50;43.40;;;;;;5057734;28;20488;-76
2021/09/01 05:19:28;;;;;;;22.17;8.00;;;16.50;43.10;;;;;;5066151;28;20440;-78
2021/09/01 05:22:05;;;;;;;18.53;8.13;;;16.40;43.70;;;;;;5065836;28;20393;-78
2021/09/01 05:24:50;;;;;;;21.08;8.70;;;16.30;44.20;;;;;;5065266;28;20404;-77
2021/09/01 05:27:19;;;;;;;21.53;8.70;;;16.40;43.70;;;;;;5059887;28;20403;-77
2021/09/01 05:29:47;;;;;;;17.33;8.10;;;16.40;43.60;;;;;;5059825;28;20407;-78
2021/09/01 05:32:24;;;;;;;15.10;7.85;;;16.50;43.00;;;;;;5056202;28;20394;-79
2021/09/01 05:34:55;;;;;;;19.08;8.60;;;16.50;42.70;;;;;;5064957;28;20389;-78
2021/09/01 05:37:21;;;;;;;20.60;8.50;;;16.50;43.00;;;;;;5064049;28;20393;-77
2021/09/01 05:39:50;;;;;;;16.20;7.88;;;16.40;43.70;;;;;;5060315;28;20387;-78
2021/09/01 05:42:22;;;;;;;19.02;7.85;;;16.50;43.20;;;;;;5054077;28;20402;-78
2021/09/01 05:44:49;;;;;;;18.98;7.88;;;16.50;43.70;;;;;;5053690;28;20415;-78
2021/09/01 05:47:17;;;;;;;15.68;7.55;;;16.50;43.30;;;;;;5070119;28;20959;-78
2021/09/01 05:49:45;;;;;;;15.90;7.37;;;16.60;41.90;;;;;;5063405;28;20460;-79
2021/09/01 05:52:11;;;;;;;14.70;7.68;;;16.60;42.00;;;;;;5065777;28;20385;-79
2021/09/01 05:54:42;;;;;;;17.58;7.00;;;16.70;42.10;;;;;;5062801;28;20377;-79
2021/09/01 05:57:13;;;;;;;18.02;7.20;;;16.60;42.30;;;;;;5059145;28;20473;-80
2021/09/01 05:59:46;;;;;;;23.20;7.60;;;16.70;42.50;;;;;;5064160;28;20393;-78
2021/09/01 06:02:37;;;;;;;17.75;7.47;;;16.80;42.00;;;;;;5066824;28;20802;-80
2021/09/01 06:05:04;;;;;;;17.77;7.80;;;16.80;41.90;;;;;;5094769;28;20388;-81
2021/09/01 06:07:30;;;;;;;13.15;6.80;;;16.90;41.50;;;;;;5059417;28;20423;-80
2021/09/01 06:09:59;;;;;;;22.47;8.20;;;16.80;41.10;;;;;;5050354;28;20454;-79
2021/09/01 06:12:27;;;;;;;20.88;8.10;;;16.80;41.50;;;;;;5039407;28;20395;-80
2021/09/01 06:14:53;;;;;;;17.50;7.90;;;16.80;41.80;;;;;;5054478;28;20393;-78
2021/09/01 06:17:19;;;;;;;18.08;7.97;;;16.80;41.60;;;;;;5052017;28;20399;-78
2021/09/01 06:19:44;;;;;;;16.52;7.30;;;16.80;42.00;;;;;;5059860;28;20445;-79
2021/09/01 06:22:10;;;;;;;17.87;8.00;;;16.90;41.40;;;;;;5079254;28;20402;-78
2021/09/01 06:24:36;;;;;;;17.80;7.90;;;16.90;41.40;;;;;;5061105;28;20390;-78
2021/09/01 06:27:02;;;;;;;16.80;7.60;;;16.80;42.00;;;;;;5057416;28;20425;-77
2021/09/01 06:29:28;;;;;;;20.38;7.82;;;16.90;40.50;;;;;;5038641;28;20521;-79
2021/09/01 06:31:55;;;;;;;20.25;8.10;;;16.90;41.00;;;;;;5036718;28;20442;-79
2021/09/01 06:34:20;;;;;;;23.95;8.38;;;16.90;41.90;;;;;;5050826;28;20413;-79
2021/09/01 06:36:46;;;;;;;21.13;9.15;;;16.90;41.40;;;;;;5060080;28;20455;-78
2021/09/01 06:39:11;;;;;;;22.93;9.03;;;16.90;41.60;;;;;;5084331;28;20399;-74
2021/09/01 06:41:38;;;;;;;22.37;9.00;;;16.90;41.90;;;;;;5038202;28;20403;-79
2021/09/01 06:44:04;;;;;;;22.45;8.63;;;16.90;41.60;;;;;;5031855;28;20414;-76
2021/09/01 06:46:30;;;;;;;24.30;9.05;;;16.90;42.30;;;;;;5039031;28;20389;-77
2021/09/01 06:48:55;;;;;;;17.58;8.80;;;16.90;43.20;;;;;;5050746;28;20866;-79
2021/09/01 06:51:21;;;;;;;24.58;9.85;;;17.00;43.00;;;;;;5051925;28;20476;-75
2021/09/01 06:53:47;;;;;;;22.55;9.68;;;17.00;42.70;;;;;;5056724;28;20395;-79
2021/09/01 06:56:13;;;;;;;20.80;8.50;;;17.00;43.50;;;;;;5055084;28;20397;-78
2021/09/01 06:58:38;;;;;;;18.75;9.13;;;17.00;42.80;;;;;;5054150;28;20405;-77
2021/09/01 07:01:04;;;;;;;23.43;8.73;;;17.10;43.80;;;;;;5054890;28;20401;-76
2021/09/01 07:03:30;;;;;;;21.58;8.90;;;17.10;42.40;;;;;;5052639;28;20712;-77
2021/09/01 07:05:55;;;;;;;25.75;8.40;;;17.20;41.80;;;;;;5050304;28;20397;-76
2021/09/01 07:08:23;;;;;;;18.80;8.05;;;17.20;41.90;;;;;;5051245;28;20504;-76
2021/09/01 07:10:50;;;;;;;19.35;8.70;;;17.10;42.20;;;;;;5039269;28;20390;-75
2021/09/01 07:13:15;;;;;;;20.65;8.38;;;17.10;42.00;;;;;;5050156;28;20746;-76
2021/09/01 07:15:42;;;;;;;25.67;8.07;;;17.10;42.50;;;;;;5051006;28;20377;-76
2021/09/01 07:18:08;;;;;;;22.90;8.23;;;17.20;42.30;;;;;;5049920;28;20393;-76
2021/09/01 07:20:34;;;;;;;24.90;9.63;;;17.20;42.10;;;;;;5049164;28;20389;-75
2021/09/01 07:22:59;;;;;;;19.80;8.63;;;17.30;42.30;;;;;;5048592;28;20389;-76
2021/09/01 07:25:27;;;;;;;45.88;11.20;;;17.20;43.30;;;;;;5050134;28;20443;-75
2021/09/01 07:27:53;;;;;;;25.17;10.00;;;17.20;44.00;;;;;;5040985;28;20899;-76
2021/09/01 07:30:18;;;;;;;27.88;10.15;;;17.20;44.10;;;;;;5034039;28;20391;-75
2021/09/01 07:32:44;;;;;;;24.25;9.93;;;17.20;44.20;;;;;;5050598;28;20400;-75
2021/09/01 07:35:10;;;;;;;23.07;9.47;;;17.10;44.80;;;;;;5052411;28;20389;-76
2021/09/01 07:37:46;;;;;;;25.97;10.07;;;17.10;45.90;;;;;;5052763;28;20401;-75
2021/09/01 07:40:13;;;;;;;29.52;10.80;;;17.00;47.00;;;;;;5061699;28;20397;-78
2021/09/01 07:42:39;;;;;;;23.45;10.85;;;17.10;46.60;;;;;;5055664;28;20381;-76
2021/09/01 07:45:06;;;;;;;21.23;10.00;;;17.20;46.70;;;;;;5053266;28;20388;-75
2021/09/01 07:47:31;;;;;;;23.88;10.20;;;17.30;45.40;;;;;;5049435;28;20389;-76
2021/09/01 07:49:57;;;;;;;23.30;10.43;;;17.30;46.30;;;;;;5048093;28;20539;-76
2021/09/01 07:52:22;;;;;;;30.45;10.98;;;17.20;46.50;;;;;;5052568;28;20404;-76
2021/09/01 07:54:48;;;;;;;27.87;12.17;;;17.00;47.50;;;;;;5054415;28;20373;-75
2021/09/01 07:57:14;;;;;;;24.47;11.47;;;17.00;48.40;;;;;;5085178;28;20397;-76
2021/09/01 07:59:39;;;;;;;29.33;12.32;;;16.90;49.30;;;;;;5051886;28;20854;-76
2021/09/01 08:02:05;;;;;;;30.20;12.40;;;16.80;50.30;;;;;;5055687;28;20397;-75
2021/09/01 08:04:30;;;;;;;26.50;11.53;;;16.70;50.90;;;;;;5058072;28;20401;-74
2021/09/01 08:06:56;;;;;;;30.40;12.80;;;16.70;51.50;;;;;;5047213;28;20408;-74
2021/09/01 08:09:22;;;;;;;30.70;13.90;;;16.80;51.70;;;;;;5036209;28;20428;-74
2021/09/01 08:11:48;;;;;;;26.75;13.30;;;16.90;50.80;;;;;;5054274;28;20846;-75
2021/09/01 08:14:13;;;;;;;35.50;15.17;;;16.80;50.80;;;;;;5051956;28;20407;-75
2021/09/01 08:16:39;;;;;;;30.23;13.90;;;16.70;51.70;;;;;;5052373;28;20394;-75
2021/09/01 08:19:04;;;;;;;30.92;15.25;;;16.70;51.80;;;;;;5053230;28;20477;-75
2021/09/01 08:21:30;;;;;;;32.30;13.95;;;16.80;52.00;;;;;;5054085;28;20439;-77
2021/09/01 08:23:56;;;;;;;32.15;13.85;;;16.70;52.10;;;;;;5053002;28;20460;-75
2021/09/01 08:26:21;;;;;;;33.43;12.90;;;16.70;52.10;;;;;;5053390;28;20402;-75
2021/09/01 08:28:47;;;;;;;35.57;14.77;;;16.80;52.50;;;;;;5052319;28;20413;-77
2021/09/01 08:31:12;;;;;;;37.60;16.70;;;16.90;51.00;;;;;;5053091;28;20461;-75
2021/09/01 08:33:39;;;;;;;45.47;16.35;;;17.00;49.80;;;;;;5058685;28;20885;-77
2021/09/01 08:36:05;;;;;;;32.22;15.32;;;17.00;48.90;;;;;;5089849;28;20386;-76
2021/09/01 08:38:30;;;;;;;35.75;15.45;;;17.10;49.40;;;;;;5053320;28;20397;-75
2021/09/01 08:40:56;;;;;;;29.05;14.70;;;17.10;48.30;;;;;;5054010;28;20405;-77
2021/09/01 08:43:22;;;;;;;33.37;16.00;;;17.00;49.00;;;;;;5061012;28;20381;-77
2021/09/01 08:45:48;;;;;;;33.67;14.50;;;17.00;49.60;;;;;;5057385;28;20393;-77
2021/09/01 08:48:15;;;;;;;36.53;14.25;;;17.00;49.00;;;;;;5051663;28;20403;-76
2021/09/01 08:50:41;;;;;;;31.05;14.65;;;17.10;48.60;;;;;;5054385;28;20739;-75
2021/09/01 08:53:06;;;;;;;38.60;16.10;;;17.10;48.70;;;;;;5049569;28;20408;-76
2021/09/01 08:55:32;;;;;;;39.47;16.63;;;17.20;47.90;;;;;;5050206;28;20417;-75
2021/09/01 08:57:57;;;;;;;38.60;15.80;;;17.30;47.00;;;;;;5053052;28;20543;-76
2021/09/01 09:00:23;;;;;;;26.77;13.10;;;17.40;45.90;;;;;;5053128;28;20393;-76
2021/09/01 09:02:56;;;;;;;32.63;14.83;;;17.50;45.50;;;;;;5051839;28;20866;-76
2021/09/01 09:05:30;;;;;;;29.20;13.70;;;17.60;45.30;;;;;;5053504;28;20377;-76
2021/09/01 09:07:56;;;;;;;27.98;14.35;;;17.80;44.40;;;;;;5052001;28;20438;-75
2021/09/01 09:10:45;;;;;;;30.20;14.20;;;18.00;42.70;;;;;;5053478;28;20468;-75
2021/09/01 09:13:14;;;;;;;29.47;13.97;;;18.20;40.70;;;;;;5039176;28;20417;-76
2021/09/01 09:15:41;;;;;;;33.30;14.80;;;18.20;40.20;;;;;;5051371;28;20400;-75
2021/09/01 09:18:29;;;;;;;27.70;12.30;;;18.00;41.10;;;;;;5051966;28;20381;-76
2021/09/01 09:21:15;;;;;;;30.60;13.32;;;17.90;42.80;;;;;;5053012;28;20370;-77
2021/09/01 09:23:41;;;;;;;33.90;15.35;;;17.80;43.10;;;;;;5052378;28;20389;-76
2021/09/01 09:26:22;;;;;;;36.72;18.00;;;17.80;42.00;;;;;;5052222;28;20746;-76
2021/09/01 09:29:23;;;;;;;32.05;16.88;;;17.70;40.80;;;;;;5052075;28;20405;-75
2021/09/01 09:32:06;;;;;;;32.97;18.10;;;17.50;41.60;;;;;;5029660;28;20729;-75
2021/09/01 09:34:36;;;;;;;32.00;15.90;;;17.40;43.20;;;;;;5046471;28;20428;-76
2021/09/01 09:37:08;;;;;;;42.88;17.30;;;17.30;44.50;;;;;;5051429;28;20402;-74
2021/09/01 09:39:46;;;;;;;38.28;17.17;;;17.30;45.40;;;;;;5052098;28;20405;-75
2021/09/01 09:42:32;;;;;;;36.40;16.45;;;17.30;45.90;;;;;;5051753;28;20866;-75
2021/09/01 09:44:59;;;;;;;35.88;14.90;;;17.20;46.70;;;;;;5051130;28;20404;-75
2021/09/01 09:47:47;;;;;;;37.80;15.13;;;17.30;47.10;;;;;;5051535;28;20880;-74
2021/09/01 09:50:14;;;;;;;34.83;16.80;;;17.20;46.40;;;;;;5046025;28;20411;-76
2021/09/01 09:52:39;;;;;;;32.63;17.25;;;17.10;45.20;;;;;;5038513;28;20405;-74
2021/09/01 09:55:19;;;;;;;37.40;17.27;;;17.00;45.20;;;;;;5046979;28;20489;-76
2021/09/01 09:57:48;;;;;;;35.55;16.55;;;17.10;46.80;;;;;;5047949;28;20436;-75
2021/09/01 10:00:14;;;;;;;29.45;15.00;;;17.20;46.00;;;;;;5040703;28;20488;-74
2021/09/01 10:02:42;;;;;;;33.38;14.30;;;17.20;46.50;;;;;;5051187;28;20623;-74
2021/09/01 10:05:11;;;;;;;24.40;13.30;;;17.40;46.80;;;;;;5044038;28;20399;-73
2021/09/01 10:07:37;;;;;;;31.52;14.80;;;17.50;46.30;;;;;;5051507;28;20451;-73
2021/09/01 10:10:03;;;;;;;34.45;15.45;;;17.60;43.90;;;;;;5042729;28;20431;-75
2021/09/01 10:12:29;;;;;;;29.67;14.55;;;17.60;42.20;;;;;;5051541;28;20433;-75
2021/09/01 10:14:56;;;;;;;30.23;15.00;;;17.60;43.10;;;;;;5040447;28;20492;-75
2021/09/01 10:17:22;;;;;;;27.52;14.32;;;17.70;41.50;;;;;;5045657;28;20735;-75
2021/09/01 10:19:53;;;;;;;26.85;13.88;;;17.90;40.30;;;;;;5051053;28;20400;-75
2021/09/01 10:22:18;;;;;;;24.60;13.20;;;18.10;38.80;;;;;;5051158;28;20476;-74
2021/09/01 10:24:45;;;;;;;26.13;13.27;;;18.20;38.40;;;;;;5082749;28;20389;-74
2021/09/01 10:27:16;;;;;;;23.73;11.55;;;18.30;38.60;;;;;;5047026;28;20934;-74
2021/09/01 10:29:50;;;;;;;28.13;11.90;;;18.30;37.90;;;;;;5031672;28;20415;-75
2021/09/01 10:32:37;;;;;;;26.00;11.83;;;18.30;38.30;;;;;;5040709;28;20471;-75
2021/09/01 10:35:17;;;;;;;24.57;11.80;;;18.50;36.80;;;;;;5044830;28;20676;-75
2021/09/01 10:37:50;;;;;;;29.00;12.43;;;18.40;37.50;;;;;;5050889;28;20484;-74
2021/09/01 10:40:22;;;;;;;28.35;12.40;;;18.50;36.60;;;;;;5046201;28;20770;-75
2021/09/01 10:42:52;;;;;;;25.58;12.80;;;18.60;36.30;;;;;;5052823;28;20396;-75
2021/09/01 10:45:47;;;;;;;22.05;11.70;;;18.70;35.50;;;;;;5045884;28;20446;-75
2021/09/01 10:48:13;;;;;;;26.77;13.15;;;18.70;34.50;;;;;;5050051;28;20742;-74
2021/09/01 10:50:43;;;;;;;23.50;11.73;;;18.70;34.90;;;;;;5050655;28;20397;-74
2021/09/01 10:53:25;;;;;;;24.42;12.15;;;18.80;34.80;;;;;;5050535;28;20852;-74
2021/09/01 10:55:58;;;;;;;25.90;11.50;;;18.70;34.90;;;;;;5050631;28;20854;-75
2021/09/01 10:58:44;;;;;;;23.17;12.50;;;18.60;36.20;;;;;;5050232;28;20431;-74
2021/09/01 11:01:16;;;;;;;26.35;13.00;;;18.40;36.90;;;;;;5050648;28;20445;-75
2021/09/01 11:04:05;;;;;;;24.73;13.53;;;18.50;36.50;;;;;;5050738;28;20438;-74
2021/09/01 11:06:38;;;;;;;27.45;13.00;;;18.60;35.60;;;;;;5050798;28;20397;-76
2021/09/01 11:09:14;;;;;;;26.67;12.60;;;18.70;35.80;;;;;;5049653;28;20409;-74
2021/09/01 11:11:55;;;;;;;25.95;12.20;;;18.50;36.20;;;;;;5030746;28;20379;-74
2021/09/01 11:14:43;;;;;;;27.35;11.20;;;18.30;37.40;;;;;;5030520;28;20383;-75
2021/09/01 11:17:21;;;;;;;19.92;11.40;;;18.20;38.70;;;;;;5029972;28;20391;-75
2021/09/01 11:19:53;;;;;;;23.02;11.88;;;18.30;38.90;;;;;;5050148;28;20897;-75
2021/09/01 11:22:21;;;;;;;30.37;12.53;;;18.30;39.00;;;;;;5050458;28;20789;-75
2021/09/01 11:24:52;;;;;;;23.55;12.18;;;18.30;38.00;;;;;;5048924;28;20397;-73
2021/09/01 11:27:23;;;;;;;28.35;11.90;;;18.30;37.80;;;;;;5049915;28;20784;-74
2021/09/01 11:29:49;;;;;;;26.95;12.40;;;18.30;38.20;;;;;;5050099;28;20847;-74
2021/09/01 11:32:18;;;;;;;23.17;10.93;;;18.40;37.40;;;;;;5050167;28;20728;-75
2021/09/01 11:34:43;;;;;;;21.60;9.98;;;18.40;37.60;;;;;;5034270;28;20737;-77
2021/09/01 11:37:09;;;;;;;14.03;8.57;;;18.50;36.60;;;;;;5031458;28;20387;-77
2021/09/01 11:39:48;;;;;;;19.73;8.87;;;18.50;36.30;;;;;;5033830;28;20416;-77
2021/09/01 11:42:14;;;;;;;18.63;8.13;;;18.40;35.40;;;;;;5050572;28;20447;-77
2021/09/01 11:44:40;;;;;;;15.32;8.00;;;18.30;36.20;;;;;;5050168;28;20397;-75
2021/09/01 11:47:24;;;;;;;15.00;8.23;;;18.40;36.10;;;;;;5045048;28;20392;-78
2021/09/01 11:49:51;;;;;;;20.17;8.80;;;18.50;35.50;;;;;;5051061;28;20878;-76
2021/09/01 11:52:30;;;;;;;17.13;7.45;;;18.40;35.20;;;;;;5050589;28;20392;-76
2021/09/01 11:54:56;;;;;;;18.15;8.15;;;18.50;35.60;;;;;;5051984;28;20377;-77
2021/09/01 11:57:23;;;;;;;21.67;9.35;;;18.60;35.40;;;;;;5050371;28;20389;-77
2021/09/01 11:59:49;;;;;;;18.92;10.00;;;18.70;34.60;;;;;;5050890;28;20393;-77
2021/09/01 12:02:27;;;;;;;16.90;8.97;;;18.60;35.10;;;;;;5050269;28;20715;-77
2021/09/01 12:04:53;;;;;;;18.45;9.30;;;18.60;34.60;;;;;;5050817;28;20545;-77
2021/09/01 12:07:33;;;;;;;22.35;10.95;;;18.50;34.90;;;;;;5051241;28;20943;-78
2021/09/01 12:10:09;;;;;;;19.48;10.10;;;18.60;34.50;;;;;;5043863;28;20438;-78
2021/09/01 12:12:37;;;;;;;19.58;9.18;;;18.60;34.00;;;;;;5038604;28;20393;-78
2021/09/01 12:15:12;;;;;;;17.20;9.13;;;18.70;34.00;;;;;;5053975;28;20539;-78
2021/09/01 12:17:39;;;;;;;18.30;10.27;;;18.90;33.70;;;;;;5054681;28;20394;-77
2021/09/01 12:20:07;;;;;;;21.73;10.00;;;18.90;33.20;;;;;;5057933;28;20393;-77
2021/09/01 12:22:41;;;;;;;23.33;10.48;;;19.10;32.90;;;;;;5058856;28;20443;-77
2021/09/01 12:25:12;;;;;;;24.17;11.18;;;19.20;32.80;;;;;;5051786;28;20428;-78
2021/09/01 12:27:59;;;;;;;20.45;10.05;;;19.40;31.80;;;;;;5053249;28;20401;-78
2021/09/01 12:30:26;;;;;;;25.92;11.95;;;19.50;31.30;;;;;;5053006;28;20508;-76
2021/09/01 12:33:00;;;;;;;20.10;11.10;;;19.40;30.60;;;;;;5052659;28;20403;-77
2021/09/01 12:35:27;;;;;;;21.38;11.13;;;19.40;29.90;;;;;;5054056;28;20389;-76
2021/09/01 12:37:55;;;;;;;17.85;10.55;;;19.40;30.60;;;;;;5053631;28;20453;-77